Time;durP1;ratioP1;P1;durP2;ratioP2;P2;SDS_P1;SDS_P2;PMS_P1;PMS_P2;Temp;Humidity;BMP_temperature;BMP_pressure;BME280_temperature;BME280_humidity;BME280_pressure;Samples;Min_cycle;Max_cycle;Signal;HPM_P1;HPM_P2
2022/01/10 00:00:39;;;;;;;0.10;0.10;;;2.90;99.90;;;;;;5110113;28;20040;-77
2022/01/10 00:03:06;;;;;;;0.10;0.10;;;2.90;99.90;;;;;;5109948;28;20040;-79
2022/01/10 00:05:34;;;;;;;0.10;0.10;;;2.90;99.90;;;;;;5092765;28;20381;-79
2022/01/10 00:08:04;;;;;;;0.10;0.10;;;2.90;99.90;;;;;;5126828;28;20089;-79
2022/01/10 00:10:32;;;;;;;0.10;0.10;;;2.80;99.90;;;;;;5125980;28;20067;-79
2022/01/10 00:12:59;;;;;;;0.20;0.20;;;2.80;99.90;;;;;;5109888;28;20039;-77
2022/01/10 00:15:26;;;;;;;0.10;0.10;;;3.30;99.90;;;;;;5109596;28;20051;-77
2022/01/10 00:17:53;;;;;;;0.20;0.20;;;2.70;99.90;;;;;;5108567;28;20050;-77
2022/01/10 00:20:20;;;;;;;0.15;0.15;;;2.70;99.90;;;;;;5109464;28;20132;-78
2022/01/10 00:22:49;;;;;;;0.10;0.10;;;2.70;99.90;;;;;;5093067;28;20078;-77
2022/01/10 00:25:19;;;;;;;0.10;0.10;;;2.60;99.90;;;;;;5093580;28;20075;-79
2022/01/10 00:27:47;;;;;;;0.10;0.10;;;2.70;99.90;;;;;;5109804;28;20126;-78
2022/01/10 00:30:14;;;;;;;0.20;0.20;;;2.60;99.90;;;;;;5109536;28;20516;-77
2022/01/10 00:32:43;;;;;;;0.17;0.17;;;2.50;99.90;;;;;;5092324;28;20066;-79
2022/01/10 00:35:11;;;;;;;0.20;0.20;;;2.50;99.90;;;;;;5143260;28;20040;-79
2022/01/10 00:37:41;;;;;;;0.20;0.20;;;2.50;99.90;;;;;;5091949;28;20512;-77
2022/01/10 00:40:10;;;;;;;0.10;0.10;;;2.70;99.90;;;;;;5142907;28;20436;-79
2022/01/10 00:42:37;;;;;;;0.15;0.15;;;2.40;99.90;;;;;;5092320;28;20066;-78
2022/01/10 00:45:13;;;;;;;0.10;0.10;;;2.40;99.90;;;;;;5109033;28;20089;-79
2022/01/10 00:47:40;;;;;;;;;;;2.40;99.90;;;;;;5109060;28;20109;-77
2022/01/10 00:50:07;;;;;;;0.10;0.10;;;2.50;99.90;;;;;;5142886;28;19923;-77
2022/01/10 00:52:33;;;;;;;0.10;0.10;;;2.50;99.90;;;;;;5091687;28;20032;-79
2022/01/10 00:55:00;;;;;;;0.10;0.10;;;2.40;99.90;;;;;;5109100;28;20047;-79
2022/01/10 00:57:27;;;;;;;0.20;0.20;;;2.70;99.90;;;;;;5092240;28;20063;-77
2022/01/10 00:59:53;;;;;;;0.10;0.10;;;2.40;99.90;;;;;;5091836;28;20051;-79
2022/01/10 01:02:21;;;;;;;0.10;0.10;;;2.40;99.90;;;;;;5108953;28;20048;-77
2022/01/10 01:04:51;;;;;;;0.10;0.10;;;2.30;99.90;;;;;;5091762;28;20036;-78
2022/01/10 01:07:18;;;;;;;0.17;0.17;;;2.30;99.90;;;;;;5092895;28;20040;-79
2022/01/10 01:09:52;;;;;;;0.10;0.10;;;2.30;99.90;;;;;;5125253;28;20044;-79
2022/01/10 01:12:31;;;;;;;0.20;0.20;;;2.20;99.90;;;;;;5108773;28;20130;-79
2022/01/10 01:15:17;;;;;;;0.10;0.10;;;2.20;99.90;;;;;;5127385;28;20053;-79
2022/01/10 01:17:59;;;;;;;0.13;0.13;;;2.10;99.90;;;;;;5115167;28;20048;-80
2022/01/10 01:20:42;;;;;;;0.20;0.20;;;2.00;99.90;;;;;;5146074;28;20142;-79
2022/01/10 01:25:55;;;;;;;0.10;0.10;;;1.90;99.90;;;;;;5145423;28;20047;-79
2022/01/10 01:28:23;;;;;;;0.10;0.10;;;1.80;99.90;;;;;;5128579;28;20134;-79
2022/01/10 01:30:50;;;;;;;0.10;0.10;;;2.10;99.90;;;;;;5127582;28;20084;-78
2022/01/10 01:33:17;;;;;;;0.10;0.10;;;2.10;99.90;;;;;;5128747;28;20399;-80
2022/01/10 01:35:44;;;;;;;0.10;0.10;;;2.00;99.90;;;;;;5128709;28;20447;-77
2022/01/10 01:38:11;;;;;;;0.20;0.20;;;1.70;99.90;;;;;;5128718;28;20075;-79
2022/01/10 01:40:44;;;;;;;0.20;0.20;;;1.60;99.90;;;;;;5128586;28;20444;-77
2022/01/10 01:43:11;;;;;;;0.10;0.10;;;1.60;99.90;;;;;;5129259;28;20051;-79
2022/01/10 01:45:41;;;;;;;0.10;0.10;;;1.50;99.90;;;;;;5145371;28;20046;-79
2022/01/10 01:48:09;;;;;;;0.10;0.10;;;1.50;99.90;;;;;;5128594;28;20043;-77
2022/01/10 01:50:36;;;;;;;0.10;0.10;;;1.50;99.90;;;;;;5128423;28;20044;-80
2022/01/10 01:53:04;;;;;;;0.20;0.20;;;1.40;99.90;;;;;;5127999;28;20036;-79
2022/01/10 01:55:31;;;;;;;0.10;0.10;;;1.50;99.90;;;;;;5128715;28;20059;-79
2022/01/10 01:57:58;;;;;;;0.20;0.20;;;1.30;99.90;;;;;;5128168;28;20040;-79
2022/01/10 02:00:25;;;;;;;0.20;0.20;;;1.30;99.90;;;;;;5128546;28;20047;-78
2022/01/10 02:02:53;;;;;;;0.15;0.15;;;1.20;99.90;;;;;;5127953;28;20051;-77
2022/01/10 02:05:20;;;;;;;0.10;0.10;;;1.20;99.90;;;;;;5128353;28;20116;-79
2022/01/10 02:07:47;;;;;;;0.10;0.10;;;1.10;99.90;;;;;;5145152;28;20096;-80
2022/01/10 02:10:15;;;;;;;0.10;0.10;;;1.00;99.90;;;;;;5111328;28;20036;-79
2022/01/10 02:12:41;;;;;;;0.10;0.10;;;1.80;99.90;;;;;;5128435;28;20039;-78
2022/01/10 02:15:08;;;;;;;0.20;0.20;;;1.90;99.90;;;;;;5111274;28;20432;-79
2022/01/10 02:17:38;;;;;;;0.20;0.20;;;0.90;99.90;;;;;;5111088;28;20424;-77
2022/01/10 02:20:06;;;;;;;0.20;0.20;;;0.90;99.90;;;;;;5128002;28;20083;-78
2022/01/10 02:22:34;;;;;;;0.20;0.20;;;0.90;99.90;;;;;;5128305;28;20046;-77
2022/01/10 02:25:00;;;;;;;0.20;0.20;;;0.90;99.90;;;;;;5127596;28;20152;-79
2022/01/10 02:27:27;;;;;;;0.20;0.20;;;0.90;99.90;;;;;;5128286;28;20165;-77
2022/01/10 02:29:54;;;;;;;0.20;0.20;;;0.90;99.90;;;;;;5111060;28;20044;-77
2022/01/10 02:32:21;;;;;;;0.20;0.20;;;0.80;99.90;;;;;;5127882;28;20416;-77
2022/01/10 02:34:48;;;;;;;0.20;0.20;;;0.80;99.90;;;;;;5127350;28;20566;-78
2022/01/10 02:37:32;;;;;;;0.13;0.13;;;0.90;99.90;;;;;;5094232;28;20126;-79
2022/01/10 02:40:02;;;;;;;0.20;0.20;;;0.80;99.90;;;;;;5144419;28;20057;-79
2022/01/10 02:42:29;;;;;;;0.28;0.28;;;0.80;99.90;;;;;;5131916;28;20054;-79
2022/01/10 02:44:55;;;;;;;0.20;0.20;;;0.90;99.90;;;;;;5131182;28;20126;-78
2022/01/10 02:47:22;;;;;;;0.20;0.20;;;0.90;99.90;;;;;;5131540;28;20515;-77
2022/01/10 02:49:49;;;;;;;0.10;0.10;;;0.90;99.90;;;;;;5097831;28;20035;-77
2022/01/10 02:52:16;;;;;;;0.20;0.20;;;0.90;99.90;;;;;;5148064;28;20495;-77
2022/01/10 02:54:42;;;;;;;0.20;0.20;;;0.80;99.90;;;;;;5111083;28;20089;-79
2022/01/10 02:57:09;;;;;;;0.20;0.20;;;0.80;99.90;;;;;;5144473;28;20056;-77
2022/01/10 02:59:37;;;;;;;0.20;0.20;;;0.80;99.90;;;;;;5111490;28;20127;-77
2022/01/10 03:02:03;;;;;;;0.20;0.20;;;0.80;99.90;;;;;;5110833;28;20040;-78
2022/01/10 03:04:30;;;;;;;0.20;0.20;;;0.80;99.90;;;;;;5111248;28;20047;-77
2022/01/10 03:06:58;;;;;;;0.20;0.20;;;0.80;99.90;;;;;;5094199;28;20040;-79
2022/01/10 03:09:25;;;;;;;0.17;0.17;;;0.80;99.90;;;;;;5094696;28;20055;-77
2022/01/10 03:11:52;;;;;;;0.20;0.20;;;0.80;99.90;;;;;;5144492;28;20040;-77
2022/01/10 03:14:19;;;;;;;0.25;0.25;;;1.00;99.90;;;;;;5110981;28;20043;-77
2022/01/10 03:16:46;;;;;;;0.20;0.20;;;0.70;99.90;;;;;;5127423;28;20052;-77
2022/01/10 03:19:12;;;;;;;0.20;0.20;;;1.30;99.90;;;;;;5127328;28;20048;-78
2022/01/10 03:21:39;;;;;;;0.10;0.10;;;0.70;99.90;;;;;;5127453;28;20040;-79
2022/01/10 03:24:06;;;;;;;0.10;0.10;;;1.40;99.90;;;;;;5093749;28;20039;-77
2022/01/10 03:26:33;;;;;;;0.10;0.10;;;0.70;99.90;;;;;;5144183;28;20047;-77
2022/01/10 03:29:00;;;;;;;0.20;0.20;;;0.70;99.90;;;;;;5127095;28;20072;-77
2022/01/10 03:31:27;;;;;;;0.20;0.20;;;0.70;99.90;;;;;;5110663;28;20471;-79
2022/01/10 03:33:54;;;;;;;0.20;0.20;;;0.60;99.90;;;;;;5144390;28;20182;-78
2022/01/10 03:36:21;;;;;;;0.20;0.20;;;0.70;99.90;;;;;;5109817;28;20143;-79
2022/01/10 03:38:47;;;;;;;0.20;0.20;;;0.60;99.90;;;;;;5126619;28;20043;-77
2022/01/10 03:41:14;;;;;;;0.20;0.20;;;0.70;99.90;;;;;;5109733;28;20036;-77
2022/01/10 03:43:41;;;;;;;0.20;0.20;;;0.60;99.90;;;;;;5110105;28;20915;-77
2022/01/10 03:46:08;;;;;;;0.10;0.10;;;0.60;99.90;;;;;;5109793;28;20047;-79
2022/01/10 03:48:34;;;;;;;0.20;0.20;;;0.70;99.90;;;;;;5144012;28;20086;-78
2022/01/10 03:51:01;;;;;;;0.20;0.20;;;0.70;99.90;;;;;;5126221;28;20428;-77
2022/01/10 03:53:29;;;;;;;0.20;0.20;;;0.60;99.90;;;;;;5142926;28;20040;-77
2022/01/10 03:55:55;;;;;;;0.20;0.20;;;0.60;99.90;;;;;;5110407;28;20044;-79
2022/01/10 03:58:22;;;;;;;0.20;0.20;;;0.60;99.90;;;;;;5109505;28;20046;-78
2022/01/10 04:00:49;;;;;;;0.10;0.10;;;0.60;99.90;;;;;;5126549;28;20082;-78
2022/01/10 04:03:16;;;;;;;0.20;0.20;;;0.60;99.90;;;;;;5143198;28;20040;-79
2022/01/10 04:05:43;;;;;;;0.10;0.10;;;0.60;99.90;;;;;;5092900;28;20036;-77
2022/01/10 04:08:12;;;;;;;0.20;0.20;;;0.70;99.90;;;;;;5109738;28;20089;-79
2022/01/10 04:10:39;;;;;;;0.20;0.20;;;0.60;99.90;;;;;;5143685;28;20085;-77
2022/01/10 04:13:05;;;;;;;0.10;0.10;;;0.60;99.90;;;;;;5126014;28;20040;-77
2022/01/10 04:15:32;;;;;;;0.20;0.20;;;0.60;99.90;;;;;;5092776;28;20106;-78
2022/01/10 04:18:01;;;;;;;0.20;0.20;;;0.60;99.90;;;;;;5092608;28;20059;-77
2022/01/10 04:20:28;;;;;;;0.20;0.20;;;0.60;99.90;;;;;;5093324;28;20128;-78
2022/01/10 04:22:55;;;;;;;0.30;0.30;;;0.60;99.90;;;;;;5092748;28;20098;-77
2022/01/10 04:25:22;;;;;;;0.20;0.20;;;0.60;99.90;;;;;;5092669;28;20043;-77
2022/01/10 04:27:48;;;;;;;0.20;0.20;;;1.60;99.90;;;;;;5126198;28;20055;-79
2022/01/10 04:30:15;;;;;;;0.20;0.20;;;1.60;99.90;;;;;;5108920;28;20117;-77
2022/01/10 04:32:43;;;;;;;0.20;0.20;;;0.50;99.90;;;;;;5142891;28;20066;-77
2022/01/10 04:35:10;;;;;;;0.22;0.22;;;0.60;99.90;;;;;;5108870;28;20577;-78
2022/01/10 04:37:37;;;;;;;0.20;0.20;;;0.50;99.90;;;;;;5109345;28;20047;-77
2022/01/10 04:40:06;;;;;;;0.20;0.20;;;1.50;99.90;;;;;;5143267;28;20040;-77
2022/01/10 04:42:32;;;;;;;0.25;0.25;;;0.60;99.90;;;;;;5108785;28;20044;-79
2022/01/10 04:44:59;;;;;;;0.20;0.20;;;0.60;99.90;;;;;;5109082;28;20047;-79
2022/01/10 04:47:26;;;;;;;0.15;0.15;;;0.60;99.90;;;;;;5125364;28;20046;-79
2022/01/10 04:52:20;;;;;;;0.20;0.20;;;1.10;99.90;;;;;;5125040;28;20101;-78
2022/01/10 04:54:46;;;;;;;0.20;0.20;;;0.50;99.90;;;;;;5108975;28;20044;-77
2022/01/10 04:57:13;;;;;;;0.17;0.17;;;0.80;99.90;;;;;;5091464;28;20402;-77
2022/01/10 04:59:40;;;;;;;0.20;0.20;;;0.50;99.90;;;;;;5092688;28;20047;-79
2022/01/10 05:02:07;;;;;;;0.30;0.30;;;0.50;99.90;;;;;;5108675;28;20496;-77
2022/01/10 05:04:34;;;;;;;0.13;0.13;;;0.50;99.90;;;;;;5108045;28;20066;-77
2022/01/10 05:07:01;;;;;;;0.20;0.20;;;0.40;99.90;;;;;;5108609;28;20048;-77
2022/01/10 05:09:27;;;;;;;0.20;0.20;;;0.40;99.90;;;;;;5125051;28;20097;-77
2022/01/10 05:11:55;;;;;;;0.10;0.10;;;0.40;99.90;;;;;;5125418;28;20047;-78
2022/01/10 05:14:21;;;;;;;0.30;0.30;;;0.40;99.90;;;;;;5108192;28;20774;-77
2022/01/10 05:16:48;;;;;;;0.20;0.20;;;0.40;99.90;;;;;;5091655;28;21381;-77
2022/01/10 05:19:15;;;;;;;0.20;0.20;;;0.30;99.90;;;;;;5124974;28;20551;-78
2022/01/10 05:21:42;;;;;;;0.20;0.20;;;0.30;99.90;;;;;;5125265;28;20135;-78
2022/01/10 05:24:09;;;;;;;0.10;0.10;;;0.30;99.90;;;;;;5142556;28;20040;-77
2022/01/10 05:26:36;;;;;;;0.20;0.20;;;1.00;99.90;;;;;;5124835;28;20497;-77
2022/01/10 05:29:03;;;;;;;0.20;0.20;;;0.20;99.90;;;;;;5142288;28;20039;-79
2022/01/10 05:31:33;;;;;;;0.20;0.20;;;0.20;99.90;;;;;;5124805;28;20718;-77
2022/01/10 05:34:01;;;;;;;0.20;0.20;;;0.30;99.90;;;;;;5125606;28;20062;-79
2022/01/10 05:36:28;;;;;;;0.30;0.30;;;0.80;99.90;;;;;;5141447;28;20043;-77
2022/01/10 05:38:56;;;;;;;0.20;0.20;;;0.20;99.90;;;;;;5108328;28;20128;-79
2022/01/10 05:41:24;;;;;;;0.20;0.20;;;0.20;99.90;;;;;;5124976;28;20040;-78
2022/01/10 05:43:51;;;;;;;0.20;0.20;;;0.20;99.90;;;;;;5125251;28;20048;-79
2022/01/10 05:46:20;;;;;;;0.20;0.20;;;0.20;99.90;;;;;;5145649;28;20035;-78
2022/01/10 05:48:49;;;;;;;0.10;0.10;;;0.20;99.90;;;;;;5128146;28;20107;-79
2022/01/10 05:51:16;;;;;;;0.32;0.32;;;0.20;99.90;;;;;;5145558;28;20089;-77
2022/01/10 05:53:43;;;;;;;0.20;0.20;;;0.80;99.90;;;;;;5145368;28;20043;-78
2022/01/10 05:56:10;;;;;;;0.20;0.20;;;0.20;99.90;;;;;;5145487;28;20036;-77
2022/01/10 05:58:36;;;;;;;0.20;0.20;;;0.20;99.90;;;;;;5110436;28;20496;-79
2022/01/10 06:01:04;;;;;;;0.20;0.20;;;0.10;99.90;;;;;;5145520;28;20039;-77
2022/01/10 06:03:30;;;;;;;0.30;0.30;;;0.10;99.90;;;;;;5144653;28;20456;-77
2022/01/10 06:05:57;;;;;;;0.22;0.22;;;0.10;99.90;;;;;;5128053;28;20039;-77
2022/01/10 06:08:24;;;;;;;0.30;0.30;;;0.10;99.90;;;;;;5150530;28;20063;-78
2022/01/10 06:10:51;;;;;;;0.20;0.20;;;0.10;99.90;;;;;;5137768;28;20039;-79
2022/01/10 06:13:17;;;;;;;0.20;0.20;;;0.10;99.90;;;;;;5111122;28;20110;-79
2022/01/10 06:15:44;;;;;;;0.20;0.20;;;0.60;99.90;;;;;;5111720;28;20036;-79
2022/01/10 06:18:11;;;;;;;0.17;0.17;;;0.10;99.90;;;;;;5132332;28;20062;-77
2022/01/10 06:20:38;;;;;;;0.20;0.20;;;0.10;99.90;;;;;;5115098;28;20043;-77
2022/01/10 06:23:04;;;;;;;0.20;0.20;;;0.10;99.90;;;;;;5099047;28;20126;-77
2022/01/10 06:25:31;;;;;;;0.20;0.20;;;0.90;99.90;;;;;;5132048;28;20043;-78
2022/01/10 06:27:58;;;;;;;0.22;0.22;;;0.10;99.90;;;;;;5149363;28;20087;-77
2022/01/10 06:30:25;;;;;;;0.25;0.25;;;0.10;99.90;;;;;;5098219;28;20631;-77
2022/01/10 06:32:52;;;;;;;0.10;0.10;;;0.10;99.90;;;;;;5132309;28;20101;-79
2022/01/10 06:35:19;;;;;;;0.20;0.20;;;0.10;99.90;;;;;;5115347;28;20089;-78
2022/01/10 06:37:45;;;;;;;0.20;0.20;;;0.10;99.90;;;;;;5101699;28;20406;-77
2022/01/10 06:40:12;;;;;;;0.20;0.20;;;0.10;99.90;;;;;;5132434;28;20046;-79
2022/01/10 06:42:40;;;;;;;0.20;0.20;;;0.10;99.90;;;;;;5131355;28;20044;-79
2022/01/10 06:45:08;;;;;;;0.20;0.20;;;0.10;99.90;;;;;;5115530;28;20044;-76
2022/01/10 06:47:35;;;;;;;0.20;0.20;;;0.00;99.90;;;;;;5131511;28;20114;-77
2022/01/10 06:50:04;;;;;;;0.20;0.20;;;0.10;99.90;;;;;;5114995;28;20047;-78
2022/01/10 06:52:31;;;;;;;0.20;0.20;;;0.00;99.90;;;;;;5114665;28;20131;-77
2022/01/10 06:54:58;;;;;;;0.20;0.20;;;0.00;99.90;;;;;;5131769;28;20788;-77
2022/01/10 06:57:26;;;;;;;0.20;0.20;;;0.00;99.90;;;;;;5131638;28;20124;-78
2022/01/10 06:59:53;;;;;;;0.20;0.20;;;0.00;99.90;;;;;;5148503;28;20036;-78
2022/01/10 07:02:19;;;;;;;0.20;0.20;;;-0.10;99.90;;;;;;5148497;28;20477;-79
2022/01/10 07:04:46;;;;;;;0.25;0.25;;;0.30;99.90;;;;;;5148323;28;20047;-76
2022/01/10 07:07:13;;;;;;;0.20;0.20;;;-0.20;99.90;;;;;;5149049;28;20047;-78
2022/01/10 07:09:40;;;;;;;0.40;0.40;;;-0.20;99.90;;;;;;5130674;28;20043;-79
2022/01/10 07:12:07;;;;;;;0.20;0.20;;;-0.20;99.90;;;;;;5131420;28;20130;-78
2022/01/10 07:14:35;;;;;;;0.25;0.25;;;-0.20;99.90;;;;;;5147929;28;20040;-77
2022/01/10 07:17:02;;;;;;;0.20;0.20;;;-0.20;99.90;;;;;;5098155;28;20050;-76
2022/01/10 07:19:29;;;;;;;0.20;0.20;;;-0.30;99.90;;;;;;5130650;28;20515;-78
2022/01/10 07:21:55;;;;;;;0.20;0.20;;;-0.30;99.90;;;;;;5130616;28;20130;-78
2022/01/10 07:24:22;;;;;;;0.20;0.20;;;-0.30;99.90;;;;;;5130655;28;20054;-77
2022/01/10 07:26:49;;;;;;;0.30;0.30;;;-0.30;99.90;;;;;;5095962;28;20081;-77
2022/01/10 07:29:16;;;;;;;0.20;0.20;;;-0.30;99.90;;;;;;5146556;28;20071;-76
2022/01/10 07:31:43;;;;;;;0.20;0.20;;;0.10;99.90;;;;;;5129366;28;20101;-77
2022/01/10 07:34:12;;;;;;;0.30;0.30;;;-0.30;99.90;;;;;;5129315;28;20067;-78
2022/01/10 07:36:38;;;;;;;0.20;0.20;;;-0.30;99.90;;;;;;5129848;28;20519;-78
2022/01/10 07:39:06;;;;;;;0.30;0.30;;;-0.30;99.90;;;;;;5129806;28;20039;-76
2022/01/10 07:41:33;;;;;;;0.20;0.20;;;-0.30;99.90;;;;;;5129480;28;20046;-76
2022/01/10 07:43:59;;;;;;;0.20;0.20;;;-0.30;99.90;;;;;;5112733;28;20039;-78
2022/01/10 07:46:27;;;;;;;0.20;0.20;;;-0.30;99.90;;;;;;5129008;28;20142;-77
2022/01/10 07:48:54;;;;;;;0.20;0.20;;;-0.30;99.90;;;;;;5154069;27;20131;-79
2022/01/10 07:51:23;;;;;;;0.20;0.20;;;-0.30;99.90;;;;;;5133085;27;20063;-79
2022/01/10 07:53:50;;;;;;;0.32;0.32;;;-0.30;99.90;;;;;;5129998;28;20039;-78
2022/01/10 07:56:17;;;;;;;0.20;0.20;;;-0.30;99.90;;;;;;5129450;28;20103;-79
2022/01/10 07:58:46;;;;;;;0.30;0.30;;;-0.30;99.90;;;;;;5144202;28;20046;-79
2022/01/10 08:01:13;;;;;;;0.20;0.20;;;-0.30;99.90;;;;;;5136013;28;20115;-76
2022/01/10 08:03:39;;;;;;;0.20;0.20;;;0.40;99.90;;;;;;5146661;28;20143;-78
2022/01/10 08:06:06;;;;;;;0.30;0.30;;;-0.30;99.90;;;;;;5147340;28;20027;-76
2022/01/10 08:08:33;;;;;;;0.20;0.20;;;-0.30;99.90;;;;;;5129752;28;20039;-76
2022/01/10 08:11:00;;;;;;;0.20;0.20;;;-0.30;99.90;;;;;;5130277;28;20047;-76
2022/01/10 08:13:27;;;;;;;0.30;0.30;;;-0.30;99.90;;;;;;5146213;28;20396;-79
2022/01/10 08:15:54;;;;;;;0.22;0.22;;;-0.30;99.90;;;;;;5129416;28;20027;-79
2022/01/10 08:18:21;;;;;;;0.25;0.25;;;-0.30;99.90;;;;;;5112468;28;20439;-76
2022/01/10 08:20:47;;;;;;;0.30;0.30;;;-0.30;99.90;;;;;;5137691;28;20527;-76
2022/01/10 08:23:14;;;;;;;0.20;0.20;;;-0.30;99.90;;;;;;5112419;28;20070;-79
2022/01/10 08:25:41;;;;;;;0.20;0.20;;;-0.30;99.90;;;;;;5146248;28;20041;-79
2022/01/10 08:28:08;;;;;;;0.20;0.20;;;0.10;99.90;;;;;;5129490;28;20050;-77
2022/01/10 08:30:35;;;;;;;0.25;0.25;;;-0.30;99.90;;;;;;5092263;28;20093;-77
2022/01/10 08:33:02;;;;;;;0.20;0.20;;;-0.30;99.90;;;;;;5129136;28;20042;-79
2022/01/10 08:35:29;;;;;;;0.20;0.20;;;-0.30;99.90;;;;;;5129222;28;20495;-79
2022/01/10 08:37:56;;;;;;;0.28;0.28;;;-0.20;99.90;;;;;;5129399;28;20039;-79
2022/01/10 08:40:23;;;;;;;0.30;0.30;;;-0.20;99.90;;;;;;5129174;28;20092;-79
2022/01/10 08:42:49;;;;;;;0.20;0.20;;;-0.20;99.90;;;;;;5109746;28;20036;-77
2022/01/10 08:45:16;;;;;;;0.20;0.20;;;-0.20;99.90;;;;;;5129310;28;20035;-77
2022/01/10 08:47:43;;;;;;;0.30;0.30;;;-0.20;99.90;;;;;;5109722;28;20048;-80
2022/01/10 08:50:11;;;;;;;0.20;0.20;;;-0.10;99.90;;;;;;5127287;28;20450;-78
2022/01/10 08:52:39;;;;;;;0.30;0.30;;;-0.10;99.90;;;;;;5111449;28;20039;-80
2022/01/10 08:55:08;;;;;;;0.30;0.30;;;-0.10;99.90;;;;;;5140658;27;20680;-78
2022/01/10 08:57:35;;;;;;;0.22;0.22;;;-0.10;99.90;;;;;;5144323;28;20095;-80
2022/01/10 09:00:07;;;;;;;0.20;0.20;;;0.00;99.90;;;;;;5112028;28;20054;-80
2022/01/10 09:02:35;;;;;;;0.20;0.20;;;0.00;99.90;;;;;;5129237;28;20039;-78
2022/01/10 09:05:02;;;;;;;0.20;0.20;;;0.00;99.90;;;;;;5128556;28;20048;-80
2022/01/10 09:07:29;;;;;;;0.30;0.30;;;0.00;99.90;;;;;;5128790;28;20451;-80
2022/01/10 09:09:56;;;;;;;0.35;0.35;;;0.10;99.90;;;;;;5145774;28;20075;-80
2022/01/10 09:12:23;;;;;;;0.20;0.20;;;0.10;99.90;;;;;;5145753;28;20035;-80
2022/01/10 09:14:50;;;;;;;0.28;0.28;;;0.10;99.90;;;;;;5130946;28;20036;-81
2022/01/10 09:17:17;;;;;;;0.28;0.28;;;1.20;99.90;;;;;;5160154;27;20044;-78
2022/01/10 09:19:43;;;;;;;0.20;0.20;;;0.20;99.90;;;;;;5128574;28;20400;-80
2022/01/10 09:22:10;;;;;;;0.20;0.20;;;0.20;99.90;;;;;;5128873;28;20058;-81
2022/01/10 09:24:37;;;;;;;0.30;0.30;;;0.30;99.90;;;;;;5128426;28;20051;-81
2022/01/10 09:27:04;;;;;;;0.20;0.20;;;0.30;99.90;;;;;;5128011;28;20943;-78
2022/01/10 09:29:30;;;;;;;0.30;0.30;;;0.30;99.90;;;;;;5145692;28;20522;-77
2022/01/10 09:31:57;;;;;;;0.20;0.20;;;0.40;99.90;;;;;;5127987;28;20096;-79
2022/01/10 09:34:24;;;;;;;0.20;0.20;;;0.40;99.90;;;;;;5128469;28;20043;-77
2022/01/10 09:36:51;;;;;;;0.30;0.30;;;0.40;99.90;;;;;;5111191;28;20507;-78
2022/01/10 09:39:19;;;;;;;0.20;0.20;;;0.50;99.90;;;;;;5111967;28;20381;-81
2022/01/10 09:41:47;;;;;;;0.20;0.20;;;0.50;99.90;;;;;;5129011;28;20050;-79
2022/01/10 09:44:15;;;;;;;0.25;0.25;;;0.60;99.90;;;;;;5145669;28;20047;-79
2022/01/10 09:46:42;;;;;;;0.47;0.47;;;0.60;99.90;;;;;;5112041;28;20039;-80
2022/01/10 09:49:09;;;;;;;0.20;0.20;;;0.60;99.90;;;;;;5127622;28;20519;-80
2022/01/10 09:51:36;;;;;;;0.20;0.20;;;1.00;99.90;;;;;;5130317;28;20046;-78
2022/01/10 09:54:03;;;;;;;0.30;0.30;;;0.70;99.90;;;;;;5115277;28;20035;-80
2022/01/10 09:56:30;;;;;;;0.20;0.20;;;1.70;99.90;;;;;;5132391;28;20043;-80
2022/01/10 09:58:59;;;;;;;0.20;0.20;;;0.80;99.90;;;;;;5131230;28;20349;-81
2022/01/10 10:01:28;;;;;;;0.10;0.10;;;1.20;99.90;;;;;;5132801;28;20039;-80
2022/01/10 10:03:59;;;;;;;0.22;0.22;;;0.90;99.90;;;;;;5131550;28;20494;-78
2022/01/10 10:06:31;;;;;;;0.20;0.20;;;0.90;99.90;;;;;;5133061;28;20039;-81
2022/01/10 10:09:08;;;;;;;0.20;0.20;;;1.30;99.90;;;;;;5131679;28;20035;-78
2022/01/10 10:11:42;;;;;;;0.10;0.10;;;1.40;99.90;;;;;;5131852;28;20036;-78
2022/01/10 10:14:11;;;;;;;0.30;0.30;;;1.60;99.90;;;;;;5148743;28;20237;-82
2022/01/10 10:16:46;;;;;;;0.20;0.20;;;1.10;99.90;;;;;;5149925;28;20377;-78
2022/01/10 10:19:15;;;;;;;0.25;0.25;;;1.60;99.90;;;;;;5148739;28;20055;-81
2022/01/10 10:21:42;;;;;;;0.40;0.40;;;1.10;99.90;;;;;;5149890;28;20587;-81
2022/01/10 10:24:09;;;;;;;0.20;0.20;;;1.20;99.90;;;;;;5148850;28;20122;-78
2022/01/10 10:26:35;;;;;;;0.20;0.20;;;1.30;99.90;;;;;;5132419;28;20449;-78
2022/01/10 10:29:03;;;;;;;0.20;0.20;;;1.30;99.90;;;;;;5114963;28;20507;-78
2022/01/10 10:31:33;;;;;;;0.20;0.20;;;1.30;99.90;;;;;;5132636;28;20097;-82
2022/01/10 10:34:04;;;;;;;0.20;0.20;;;1.40;99.90;;;;;;5131580;28;20040;-78
2022/01/10 10:36:33;;;;;;;0.15;0.15;;;1.40;99.90;;;;;;5149098;28;20035;-78
2022/01/10 10:39:03;;;;;;;0.20;0.20;;;1.50;99.90;;;;;;5130931;28;20074;-78
2022/01/10 10:41:30;;;;;;;0.20;0.20;;;1.50;99.90;;;;;;5132637;28;20082;-81
2022/01/10 10:43:56;;;;;;;0.10;0.10;;;2.10;99.90;;;;;;5131355;28;20076;-81
2022/01/10 10:46:27;;;;;;;0.20;0.20;;;1.60;99.90;;;;;;5148851;28;20122;-81
2022/01/10 10:49:03;;;;;;;0.20;0.20;;;1.70;99.90;;;;;;5132064;28;20075;-81
2022/01/10 10:51:33;;;;;;;0.10;0.10;;;1.70;99.90;;;;;;5132116;28;20032;-82
2022/01/10 10:54:09;;;;;;;0.20;0.20;;;1.70;99.90;;;;;;5147976;28;20118;-78
2022/01/10 10:56:42;;;;;;;0.20;0.20;;;2.10;99.90;;;;;;5148993;28;20043;-78
2022/01/10 10:59:10;;;;;;;0.20;0.20;;;1.80;99.90;;;;;;5130927;28;20047;-78
2022/01/10 11:01:38;;;;;;;0.15;0.15;;;1.80;99.90;;;;;;5130192;28;20062;-79
2022/01/10 11:04:06;;;;;;;0.13;0.13;;;1.90;99.90;;;;;;5131145;28;20084;-77
2022/01/10 11:06:34;;;;;;;0.10;0.10;;;2.00;99.90;;;;;;5131178;28;20031;-77
2022/01/10 11:09:04;;;;;;;0.10;0.10;;;2.00;99.90;;;;;;5130298;28;20547;-79
2022/01/10 11:11:31;;;;;;;0.20;0.20;;;2.00;99.90;;;;;;5148067;28;20092;-80
2022/01/10 11:13:58;;;;;;;0.20;0.20;;;2.00;99.90;;;;;;5130839;28;20040;-80
2022/01/10 11:16:26;;;;;;;0.20;0.20;;;2.00;99.90;;;;;;5130715;28;20031;-77
2022/01/10 11:18:54;;;;;;;0.20;0.20;;;2.10;99.90;;;;;;5130565;28;20104;-77
2022/01/10 11:21:23;;;;;;;0.20;0.20;;;2.10;99.90;;;;;;5131261;28;20050;-79
2022/01/10 11:23:52;;;;;;;0.20;0.20;;;2.20;99.90;;;;;;5147528;28;20173;-79
2022/01/10 11:26:19;;;;;;;0.20;0.20;;;2.30;99.90;;;;;;5144836;27;20058;-79
2022/01/10 11:28:56;;;;;;;0.20;0.20;;;2.30;99.90;;;;;;5168822;27;20047;-79
2022/01/10 11:31:26;;;;;;;0.20;0.20;;;2.30;99.90;;;;;;5168408;27;20035;-78
2022/01/10 11:33:55;;;;;;;0.17;0.17;;;2.40;99.90;;;;;;5151644;27;20074;-77
2022/01/10 11:36:26;;;;;;;0.20;0.20;;;2.40;99.90;;;;;;5185327;27;20411;-77
2022/01/10 11:39:07;;;;;;;0.13;0.13;;;2.50;99.90;;;;;;5114085;28;20145;-77
2022/01/10 11:41:34;;;;;;;0.10;0.10;;;2.50;99.90;;;;;;5147693;28;20039;-81
2022/01/10 11:44:06;;;;;;;0.10;0.10;;;2.50;99.90;;;;;;5164287;27;20058;-78
2022/01/10 11:46:43;;;;;;;0.10;0.10;;;2.60;99.90;;;;;;5161902;27;20460;-80
2022/01/10 11:49:09;;;;;;;0.10;0.10;;;2.60;99.90;;;;;;5136244;28;20471;-78
2022/01/10 11:51:40;;;;;;;0.10;0.10;;;2.80;99.90;;;;;;5116342;28;20042;-77
2022/01/10 11:54:12;;;;;;;0.10;0.10;;;2.70;99.90;;;;;;5129674;28;20404;-77
2022/01/10 11:56:56;;;;;;;0.40;0.40;;;2.80;99.90;;;;;;5130947;28;20036;-81
2022/01/10 11:59:27;;;;;;;0.20;0.20;;;2.80;99.90;;;;;;5130144;28;20075;-81
2022/01/10 12:01:58;;;;;;;0.20;0.20;;;2.80;99.90;;;;;;5156193;27;20032;-79
2022/01/10 12:04:28;;;;;;;0.20;0.20;;;2.90;99.90;;;;;;5152261;27;20404;-79
2022/01/10 12:06:55;;;;;;;0.20;0.20;;;2.90;99.90;;;;;;5158065;27;20051;-79
2022/01/10 12:09:23;;;;;;;0.17;0.17;;;3.50;99.90;;;;;;5129177;28;20035;-81
2022/01/10 12:11:51;;;;;;;0.10;0.10;;;3.00;99.90;;;;;;5110202;28;20043;-80
2022/01/10 12:14:22;;;;;;;0.10;0.10;;;3.00;99.90;;;;;;5129461;28;20042;-81
2022/01/10 12:16:50;;;;;;;0.10;0.10;;;3.00;99.90;;;;;;5113800;28;20122;-78
2022/01/10 12:19:18;;;;;;;0.20;0.20;;;3.10;99.90;;;;;;5129528;28;20480;-78
2022/01/10 12:21:45;;;;;;;0.10;0.10;;;3.90;99.90;;;;;;5095422;28;20079;-81
2022/01/10 12:24:13;;;;;;;0.10;0.10;;;3.20;99.90;;;;;;5112576;28;20042;-77
2022/01/10 12:26:41;;;;;;;0.10;0.10;;;3.30;99.90;;;;;;5129703;28;20038;-81
2022/01/10 12:29:09;;;;;;;0.13;0.13;;;3.30;99.90;;;;;;5128848;28;20097;-81
2022/01/10 12:31:37;;;;;;;0.10;0.10;;;4.10;99.90;;;;;;5154952;27;20544;-78
2022/01/10 12:34:07;;;;;;;0.15;0.15;;;4.10;99.90;;;;;;5129571;28;20059;-78
2022/01/10 12:36:35;;;;;;;0.10;0.10;;;3.40;99.90;;;;;;5112480;28;20063;-80
2022/01/10 12:39:16;;;;;;;0.10;0.10;;;3.50;99.90;;;;;;5108898;28;20377;-80
2022/01/10 12:41:43;;;;;;;0.15;0.15;;;3.50;99.90;;;;;;5155262;27;20484;-81
2022/01/10 12:44:10;;;;;;;0.10;0.10;;;3.50;99.90;;;;;;5157092;27;20032;-81
2022/01/10 12:46:37;;;;;;;0.10;0.10;;;3.60;99.90;;;;;;5128901;28;20116;-81
2022/01/10 12:49:07;;;;;;;0.10;0.10;;;3.90;99.90;;;;;;5127606;28;20126;-80
2022/01/10 12:51:54;;;;;;;0.10;0.10;;;3.70;99.90;;;;;;5128998;28;20035;-79
2022/01/10 12:54:23;;;;;;;0.20;0.20;;;3.70;99.90;;;;;;5145225;28;20484;-79
2022/01/10 12:56:50;;;;;;;0.30;0.30;;;3.70;99.90;;;;;;5146170;28;20572;-81
2022/01/10 12:59:23;;;;;;;0.10;0.10;;;4.00;99.90;;;;;;5128850;28;20123;-78
2022/01/10 13:01:50;;;;;;;0.17;0.17;;;3.90;99.90;;;;;;5146369;28;20100;-77
2022/01/10 13:04:23;;;;;;;0.00;0.00;;;3.80;99.90;;;;;;5146844;28;20093;-78